Time;durP1;ratioP1;P1;durP2;ratioP2;P2;SDS_P1;SDS_P2;PMS_P1;PMS_P2;Temp;Humidity;BMP_temperature;BMP_pressure;BME280_temperature;BME280_humidity;BME280_pressure;Samples;Min_cycle;Max_cycle;Signal;HPM_P1;HPM_P2
2024/01/17 00:01:16;;;;;;;12.40;6.80;;;;;;;2.00;97.09;99026.53;5041648;28;20045;-50
2024/01/17 00:03:43;;;;;;;15.30;7.07;;;;;;;2.01;97.64;99036.34;5038332;28;20505;-53
2024/01/17 00:06:11;;;;;;;11.65;6.78;;;;;;;2.03;97.14;99034.06;5044350;28;20045;-51
2024/01/17 00:08:38;;;;;;;16.70;7.15;;;;;;;2.02;97.37;99032.47;5030946;28;20052;-51
2024/01/17 00:11:06;;;;;;;14.70;6.93;;;;;;;2.04;97.81;99034.88;5044209;28;20041;-49
2024/01/17 00:13:34;;;;;;;13.32;6.90;;;;;;;2.05;97.57;99031.00;5019350;28;20080;-52
2024/01/17 00:16:01;;;;;;;15.25;6.13;;;;;;;2.05;97.46;99031.78;5046090;28;20052;-50
2024/01/17 00:18:29;;;;;;;14.27;6.20;;;;;;;2.04;97.67;99029.41;5047670;28;20060;-48
2024/01/17 00:20:56;;;;;;;15.93;6.88;;;;;;;2.04;97.94;99034.88;5046985;28;20494;-52
2024/01/17 00:23:24;;;;;;;12.07;6.13;;;;;;;2.04;98.00;99029.41;5029406;28;20053;-51
2024/01/17 00:25:52;;;;;;;16.00;7.80;;;;;;;2.00;97.82;99031.19;5048092;28;20112;-50
2024/01/17 00:28:19;;;;;;;18.15;6.68;;;;;;;1.96;98.12;99025.59;5047925;28;20049;-51
2024/01/17 00:30:46;;;;;;;19.83;7.75;;;;;;;1.92;97.68;99027.38;5047620;28;20060;-51
2024/01/17 00:33:14;;;;;;;15.05;7.03;;;;;;;1.87;98.08;99032.22;5027650;28;20049;-49
2024/01/17 00:35:41;;;;;;;14.90;8.25;;;;;;;1.80;98.18;99022.63;5046736;28;20053;-53
2024/01/17 00:38:09;;;;;;;13.88;7.07;;;;;;;1.74;98.00;99018.50;5046776;28;20095;-53
2024/01/17 00:40:37;;;;;;;11.68;6.93;;;;;;;1.67;98.14;99014.66;5046403;28;20627;-49
2024/01/17 00:43:05;;;;;;;13.40;7.32;;;;;;;1.62;98.01;99017.59;5009608;28;20499;-51
2024/01/17 00:45:32;;;;;;;13.50;7.75;;;;;;;1.54;98.29;99015.69;5046067;28;20048;-53
2024/01/17 00:48:00;;;;;;;13.85;7.13;;;;;;;1.49;98.40;99013.97;5046838;28;20053;-50
2024/01/17 00:50:27;;;;;;;15.65;7.53;;;;;;;1.44;98.69;99005.97;5046662;28;20041;-52
2024/01/17 00:52:54;;;;;;;13.75;7.28;;;;;;;1.39;98.55;99003.41;5047279;28;20048;-52
2024/01/17 00:55:22;;;;;;;14.95;7.72;;;;;;;1.35;98.51;99007.91;5038455;28;20053;-54
2024/01/17 00:57:49;;;;;;;12.73;7.60;;;;;;;1.30;98.55;99010.81;5043010;28;20403;-53
2024/01/17 01:00:16;;;;;;;17.02;9.52;;;;;;;1.26;98.59;99003.63;5047302;28;20052;-48
2024/01/17 01:02:45;;;;;;;15.13;7.25;;;;;;;1.21;98.76;98991.00;5046879;28;20071;-53
2024/01/17 01:05:12;;;;;;;15.30;7.22;;;;;;;1.17;99.07;98992.75;5047399;28;20060;-50
2024/01/17 01:07:39;;;;;;;16.08;8.43;;;;;;;1.12;99.08;98988.28;5046675;28;20037;-48
2024/01/17 01:10:08;;;;;;;14.68;7.90;;;;;;;1.09;98.95;98985.41;5038756;28;20053;-52
2024/01/17 01:12:35;;;;;;;13.32;7.68;;;;;;;1.04;99.00;98985.56;5046692;28;20041;-47
2024/01/17 01:15:03;;;;;;;14.27;7.43;;;;;;;1.02;98.87;98987.84;5046474;28;20045;-48
2024/01/17 01:17:31;;;;;;;16.30;7.80;;;;;;;1.00;99.08;98984.63;5028818;28;20096;-52
2024/01/17 01:19:59;;;;;;;17.10;8.55;;;;;;;0.97;99.18;98986.09;5046776;28;20041;-46
2024/01/17 01:22:26;;;;;;;16.02;8.43;;;;;;;0.95;99.22;98982.09;5046626;28;20041;-54
2024/01/17 01:24:53;;;;;;;19.10;7.00;;;;;;;0.91;99.28;98975.69;5047205;28;20041;-48
2024/01/17 01:27:21;;;;;;;15.88;8.40;;;;;;;0.87;99.54;98980.19;5046503;28;20475;-50
2024/01/17 01:29:48;;;;;;;14.98;8.77;;;;;;;0.83;99.31;98968.31;5046519;28;20053;-50
2024/01/17 01:32:15;;;;;;;16.27;7.93;;;;;;;0.83;99.75;98965.59;5046488;28;20056;-51
2024/01/17 01:34:43;;;;;;;18.77;8.65;;;;;;;0.81;99.86;98959.69;5046744;28;20049;-52
2024/01/17 01:37:10;;;;;;;15.93;7.38;;;;;;;0.79;99.79;98961.94;5046321;28;20041;-52
2024/01/17 01:39:38;;;;;;;15.75;9.00;;;;;;;0.77;99.59;98958.75;5046221;28;20048;-49
2024/01/17 01:42:05;;;;;;;17.17;9.13;;;;;;;0.75;99.70;98961.78;5045590;28;20095;-49
2024/01/17 01:44:33;;;;;;;15.48;8.23;;;;;;;0.71;99.73;98966.28;5041406;28;20048;-52
2024/01/17 01:47:00;;;;;;;18.08;9.13;;;;;;;0.67;99.70;98959.88;5045686;28;20415;-48
2024/01/17 01:49:27;;;;;;;14.40;8.00;;;;;;;0.63;100.00;98958.13;5045908;28;20041;-51
2024/01/17 01:51:55;;;;;;;16.92;8.68;;;;;;;0.61;100.00;98956.50;5037318;28;20053;-48
2024/01/17 01:54:23;;;;;;;17.48;8.80;;;;;;;0.61;100.00;98967.41;5045842;28;20048;-52
2024/01/17 01:56:53;;;;;;;18.65;8.32;;;;;;;0.60;100.00;98960.38;5039257;28;20404;-47
2024/01/17 01:59:21;;;;;;;14.98;8.02;;;;;;;0.59;100.00;98953.31;5040812;28;20056;-48
2024/01/17 02:01:49;;;;;;;18.20;7.95;;;;;;;0.56;100.00;98956.69;5045558;28;20064;-51
2024/01/17 02:04:17;;;;;;;14.63;7.45;;;;;;;0.57;100.00;98943.88;5040890;28;20045;-50
2024/01/17 02:06:45;;;;;;;15.82;9.05;;;;;;;0.55;100.00;98957.84;5046444;28;20419;-49
2024/01/17 02:09:15;;;;;;;14.93;7.93;;;;;;;0.53;100.00;98943.72;5044154;28;20053;-48
2024/01/17 02:11:42;;;;;;;18.60;8.55;;;;;;;0.53;100.00;98942.94;5046160;28;20057;-52
2024/01/17 02:14:10;;;;;;;14.98;7.63;;;;;;;0.51;100.00;98932.34;5028352;28;20080;-50
2024/01/17 02:16:38;;;;;;;14.18;7.90;;;;;;;0.52;100.00;98942.13;5045857;28;20051;-50
2024/01/17 02:19:07;;;;;;;15.18;6.88;;;;;;;0.51;100.00;98935.09;5046120;28;20044;-47
2024/01/17 02:21:35;;;;;;;17.67;8.48;;;;;;;0.50;100.00;98938.91;5046745;28;20529;-48
2024/01/17 02:24:28;;;;;;;15.93;7.78;;;;;;;0.49;100.00;98948.22;5045408;28;20056;-49
2024/01/17 02:26:59;;;;;;;13.48;7.55;;;;;;;0.51;100.00;98942.44;5040719;28;20053;-50
2024/01/17 02:29:29;;;;;;;16.08;6.80;;;;;;;0.51;100.00;98939.72;5049283;28;20053;-51
2024/01/17 02:31:56;;;;;;;19.58;7.13;;;;;;;0.50;100.00;98928.03;5032077;28;20044;-49
2024/01/17 02:34:24;;;;;;;18.08;6.97;;;;;;;0.50;100.00;98927.25;5031176;28;20045;-51
2024/01/17 02:36:52;;;;;;;14.23;8.13;;;;;;;0.50;100.00;98919.09;5049894;28;20048;-51
2024/01/17 02:39:19;;;;;;;16.98;7.88;;;;;;;0.50;100.00;98928.03;5042603;28;20084;-53
2024/01/17 02:41:46;;;;;;;16.45;7.55;;;;;;;0.46;100.00;98921.63;5026800;28;20049;-51
2024/01/17 02:44:14;;;;;;;18.77;7.45;;;;;;;0.43;100.00;98921.47;5048423;28;20037;-49
2024/01/17 02:46:41;;;;;;;15.15;7.50;;;;;;;0.41;100.00;98916.38;5048687;28;20048;-51
2024/01/17 02:49:14;;;;;;;12.63;7.10;;;;;;;0.41;100.00;98918.28;5049138;28;20048;-53
2024/01/17 02:51:41;;;;;;;15.40;7.75;;;;;;;0.41;100.00;98912.84;5048788;28;20045;-50
2024/01/17 02:54:09;;;;;;;12.20;5.82;;;;;;;0.38;100.00;98906.13;5048984;28;20068;-52
2024/01/17 02:56:36;;;;;;;16.48;6.88;;;;;;;0.36;100.00;98910.28;5048793;28;20048;-50
2024/01/17 02:59:03;;;;;;;12.18;6.65;;;;;;;0.33;100.00;98910.94;5045740;28;20475;-50
2024/01/17 03:01:31;;;;;;;16.13;6.22;;;;;;;0.31;100.00;98903.09;5048571;28;20045;-47
2024/01/17 03:03:58;;;;;;;17.33;6.55;;;;;;;0.31;100.00;98905.00;5048771;28;20061;-50
2024/01/17 03:06:25;;;;;;;18.23;6.88;;;;;;;0.28;100.00;98895.56;5048286;28;20037;-49
2024/01/17 03:08:53;;;;;;;14.23;7.05;;;;;;;0.26;100.00;98899.75;5045928;28;20057;-52
2024/01/17 03:11:20;;;;;;;13.50;6.97;;;;;;;0.24;100.00;98902.75;5041037;28;20040;-50
2024/01/17 03:13:48;;;;;;;14.15;6.65;;;;;;;0.21;100.00;98903.44;5048771;28;20049;-52
2024/01/17 03:16:19;;;;;;;14.10;7.38;;;;;;;0.20;100.00;98899.09;5047230;28;20072;-53
2024/01/17 03:18:46;;;;;;;11.40;6.18;;;;;;;0.16;100.00;98895.41;5044124;28;20049;-49
2024/01/17 03:21:16;;;;;;;15.45;7.35;;;;;;;0.15;100.00;98910.16;5048471;28;20041;-47
2024/01/17 03:23:43;;;;;;;13.20;6.18;;;;;;;0.14;100.00;98896.84;5048511;28;20407;-52
2024/01/17 03:26:10;;;;;;;11.18;6.00;;;;;;;0.13;100.00;98898.81;5048492;28;20049;-49
2024/01/17 03:28:38;;;;;;;14.82;5.85;;;;;;;0.11;100.00;98898.31;5035630;28;20053;-51
2024/01/17 03:31:05;;;;;;;9.70;5.90;;;;;;;0.08;100.00;98890.78;5047548;28;20511;-48
2024/01/17 03:33:33;;;;;;;11.32;6.60;;;;;;;0.03;100.00;98882.78;5047902;28;20408;-51
2024/01/17 03:36:01;;;;;;;11.70;6.25;;;;;;;0.00;100.00;98886.16;5048071;28;20605;-50
2024/01/17 03:38:28;;;;;;;14.65;6.28;;;;;;;0.00;100.00;98878.00;5043221;28;20053;-49
2024/01/17 03:40:56;;;;;;;15.60;6.00;;;;;;;-0.02;100.00;98882.94;5024781;28;20059;-51
2024/01/17 03:43:23;;;;;;;10.15;5.47;;;;;;;-0.03;100.00;98884.09;5047285;28;20049;-50
2024/01/17 03:45:53;;;;;;;10.63;5.60;;;;;;;-0.03;100.00;98870.50;5048711;28;20417;-52
2024/01/17 03:48:20;;;;;;;10.68;4.78;;;;;;;-0.03;100.00;98870.50;5017003;28;20048;-50
2024/01/17 03:50:48;;;;;;;12.27;6.32;;;;;;;-0.04;100.00;98871.59;5048739;28;20045;-49
2024/01/17 03:53:15;;;;;;;11.50;5.65;;;;;;;-0.08;100.00;98867.94;5047573;28;21421;-52
2024/01/17 03:55:43;;;;;;;8.82;5.10;;;;;;;-0.10;100.00;98867.44;5044790;28;20793;-51
2024/01/17 03:58:11;;;;;;;10.65;5.20;;;;;;;-0.13;100.00;98859.91;5044861;28;20045;-51
2024/01/17 04:00:39;;;;;;;9.77;5.47;;;;;;;-0.15;100.00;98862.16;5040065;28;20411;-52
2024/01/17 04:03:13;;;;;;;8.55;4.22;;;;;;;-0.17;100.00;98856.25;5048386;28;20051;-48
2024/01/17 04:05:41;;;;;;;10.40;5.97;;;;;;;-0.19;100.00;98851.16;5041965;28;20868;-47
2024/01/17 04:08:09;;;;;;;10.75;5.47;;;;;;;-0.20;100.00;98854.16;5045633;28;20041;-50
2024/01/17 04:10:36;;;;;;;9.15;4.32;;;;;;;-0.21;100.00;98853.34;5047068;28;20053;-49
2024/01/17 04:13:04;;;;;;;11.65;6.00;;;;;;;-0.22;100.00;98848.25;5030231;28;20053;-48
2024/01/17 04:15:32;;;;;;;10.50;4.95;;;;;;;-0.23;100.00;98852.09;5046496;28;20411;-48
2024/01/17 04:18:00;;;;;;;9.63;4.50;;;;;;;-0.24;100.00;98855.94;5036274;28;20060;-53
2024/01/17 04:20:27;;;;;;;13.05;5.47;;;;;;;-0.26;100.00;98856.25;5046831;28;20041;-46
2024/01/17 04:22:54;;;;;;;11.27;5.57;;;;;;;-0.26;100.00;98850.00;5047068;28;20045;-51
2024/01/17 04:25:23;;;;;;;9.50;5.28;;;;;;;-0.28;100.00;98846.81;5047201;28;20059;-50
2024/01/17 04:27:50;;;;;;;9.95;4.97;;;;;;;-0.29;100.00;98845.22;5047909;28;20056;-49
2024/01/17 04:30:17;;;;;;;10.65;5.10;;;;;;;-0.32;100.00;98835.00;5047755;28;20033;-50
2024/01/17 04:32:45;;;;;;;9.48;4.75;;;;;;;-0.33;100.00;98836.09;5029339;28;20045;-51
2024/01/17 04:35:17;;;;;;;8.50;4.85;;;;;;;-0.36;100.00;98840.25;5043960;28;20045;-49
2024/01/17 04:37:44;;;;;;;10.73;4.40;;;;;;;-0.38;100.00;98834.34;5046827;28;20056;-52
2024/01/17 04:40:12;;;;;;;9.13;4.72;;;;;;;-0.39;100.00;98840.09;5046836;28;20040;-47
2024/01/17 04:42:39;;;;;;;10.23;4.85;;;;;;;-0.39;100.00;98829.22;5043555;28;20049;-50
2024/01/17 04:45:07;;;;;;;8.90;4.57;;;;;;;-0.41;100.00;98826.03;5046508;28;20059;-48
2024/01/17 04:47:35;;;;;;;10.50;5.32;;;;;;;-0.41;100.00;98820.59;5039157;28;20059;-48
2024/01/17 04:50:03;;;;;;;7.97;4.72;;;;;;;-0.42;100.00;98821.69;5046302;28;20068;-48
2024/01/17 04:52:30;;;;;;;7.68;4.47;;;;;;;-0.41;100.00;98820.59;5025912;28;20608;-48
2024/01/17 04:54:58;;;;;;;7.80;4.07;;;;;;;-0.42;100.00;98813.53;5047036;28;20049;-50
2024/01/17 04:57:25;;;;;;;12.15;5.10;;;;;;;-0.43;100.00;98814.66;5046745;28;20041;-51
2024/01/17 04:59:52;;;;;;;7.22;3.85;;;;;;;-0.44;100.00;98802.19;5037031;28;20045;-53
2024/01/17 05:02:20;;;;;;;6.00;3.90;;;;;;;-0.43;100.00;98801.88;5046194;28;20059;-48
2024/01/17 05:04:47;;;;;;;7.78;3.95;;;;;;;-0.45;100.00;98795.94;5046477;28;20053;-47
2024/01/17 05:07:14;;;;;;;10.00;4.25;;;;;;;-0.44;100.00;98794.84;5047042;28;20517;-47
2024/01/17 05:09:42;;;;;;;16.15;5.82;;;;;;;-0.44;100.00;98794.03;5046281;28;20057;-52
2024/01/17 05:12:10;;;;;;;15.13;4.45;;;;;;;-0.45;100.00;98792.44;5046569;28;20053;-48
2024/01/17 05:14:38;;;;;;;9.13;4.22;;;;;;;-0.45;100.00;98787.78;5041234;28;20041;-48
2024/01/17 05:17:06;;;;;;;9.57;4.38;;;;;;;-0.46;100.00;98799.00;5028703;28;20057;-51
2024/01/17 05:19:33;;;;;;;7.90;3.72;;;;;;;-0.48;100.00;98793.91;5046576;28;20049;-50
2024/01/17 05:22:01;;;;;;;7.68;4.43;;;;;;;-0.49;100.00;98797.72;5046790;28;20514;-50
2024/01/17 05:24:28;;;;;;;9.20;4.53;;;;;;;-0.48;100.00;98790.38;5045693;28;20056;-51
2024/01/17 05:26:59;;;;;;;9.30;5.47;;;;;;;-0.49;100.00;98791.47;5028828;28;20053;-47
2024/01/17 05:29:26;;;;;;;8.18;4.10;;;;;;;-0.52;100.00;98781.25;5046052;28;20049;-50
2024/01/17 05:31:53;;;;;;;7.50;4.30;;;;;;;-0.55;100.00;98788.13;5046565;28;20080;-50
2024/01/17 05:34:21;;;;;;;8.50;5.07;;;;;;;-0.57;100.00;98779.50;5045507;28;20045;-48
2024/01/17 05:36:48;;;;;;;12.90;4.60;;;;;;;-0.57;100.00;98784.13;5046207;28;21425;-49
2024/01/17 05:39:15;;;;;;;12.57;5.07;;;;;;;-0.59;100.00;98778.22;5028797;28;20041;-52
2024/01/17 05:41:43;;;;;;;6.93;4.03;;;;;;;-0.61;100.00;98779.31;5045633;28;20049;-47
2024/01/17 05:44:10;;;;;;;7.38;4.22;;;;;;;-0.62;100.00;98774.22;5045746;28;20507;-47
2024/01/17 05:46:41;;;;;;;6.75;3.75;;;;;;;-0.65;100.00;98772.94;5046208;28;20056;-48
2024/01/17 05:49:09;;;;;;;9.65;4.82;;;;;;;-0.66;100.00;98770.53;5046385;28;20079;-51
2024/01/17 05:51:36;;;;;;;6.80;3.50;;;;;;;-0.68;100.00;98767.34;5046254;28;20064;-46
2024/01/17 05:54:03;;;;;;;10.35;4.22;;;;;;;-0.68;100.00;98770.06;5046437;28;20049;-51
2024/01/17 05:56:31;;;;;;;8.68;4.05;;;;;;;-0.71;100.00;98763.34;5027308;28;20053;-46
2024/01/17 05:58:58;;;;;;;9.32;4.32;;;;;;;-0.72;100.00;98767.19;5046790;28;20057;-48
2024/01/17 06:01:25;;;;;;;11.52;4.60;;;;;;;-0.73;100.00;98760.16;5045527;28;20399;-52
2024/01/17 06:03:53;;;;;;;9.82;4.38;;;;;;;-0.77;100.00;98759.19;5049731;28;20529;-50
2024/01/17 06:06:20;;;;;;;9.57;4.20;;;;;;;-0.77;100.00;98761.91;5049737;28;20049;-47
2024/01/17 06:08:48;;;;;;;9.98;4.25;;;;;;;-0.77;100.00;98751.03;5050205;28;20041;-52
2024/01/17 06:11:15;;;;;;;7.47;4.93;;;;;;;-0.76;100.00;98744.50;5049759;28;20045;-51
2024/01/17 06:13:43;;;;;;;9.55;3.90;;;;;;;-0.75;100.00;98748.81;5049215;28;20049;-48
2024/01/17 06:16:10;;;;;;;12.95;4.68;;;;;;;-0.77;100.00;98756.47;5049005;28;20049;-52
2024/01/17 06:18:39;;;;;;;8.02;4.28;;;;;;;-0.76;100.00;98749.13;5048732;28;20124;-50
2024/01/17 06:21:06;;;;;;;14.43;4.13;;;;;;;-0.77;100.00;98742.88;5042853;28;20051;-52
2024/01/17 06:23:34;;;;;;;10.25;3.85;;;;;;;-0.74;100.00;98736.81;5049549;28;20048;-51
2024/01/17 06:26:01;;;;;;;12.10;4.82;;;;;;;-0.76;100.00;98747.22;5050185;28;20060;-52
2024/01/17 06:28:29;;;;;;;11.73;5.43;;;;;;;-0.77;100.00;98742.88;5030463;28;20041;-50
2024/01/17 06:30:56;;;;;;;11.65;4.78;;;;;;;-0.78;100.00;98744.03;5049130;28;20055;-52
2024/01/17 06:33:23;;;;;;;10.77;4.60;;;;;;;-0.79;100.00;98733.44;5048906;28;20052;-53
2024/01/17 06:35:51;;;;;;;10.50;3.97;;;;;;;-0.80;100.00;98729.97;5049210;28;20053;-50
2024/01/17 06:38:18;;;;;;;10.18;4.15;;;;;;;-0.81;100.00;98735.69;5049109;28;20053;-47
2024/01/17 06:40:47;;;;;;;10.75;4.75;;;;;;;-0.82;100.00;98734.88;5049905;28;20570;-47
2024/01/17 06:43:14;;;;;;;9.93;4.82;;;;;;;-0.81;100.00;98722.91;5049078;28;20045;-48
2024/01/17 06:45:41;;;;;;;8.93;3.90;;;;;;;-0.82;100.00;98723.25;5031074;28;20048;-47
2024/01/17 06:48:09;;;;;;;7.55;4.25;;;;;;;-0.85;100.00;98724.66;5049240;28;20495;-47
2024/01/17 06:50:36;;;;;;;6.60;3.90;;;;;;;-0.85;100.00;98713.78;5049082;28;20053;-53
2024/01/17 06:53:04;;;;;;;7.53;4.28;;;;;;;-0.88;100.00;98714.47;5046633;28;20053;-50
2024/01/17 06:55:31;;;;;;;8.05;3.53;;;;;;;-0.90;100.00;98716.66;5048310;28;20053;-49
2024/01/17 06:57:58;;;;;;;9.77;3.85;;;;;;;-0.91;100.00;98725.16;5048400;28;20518;-53
2024/01/17 07:00:26;;;;;;;9.02;3.78;;;;;;;-0.94;100.00;98715.72;5049003;28;20064;-50
2024/01/17 07:02:56;;;;;;;10.93;4.10;;;;;;;-0.97;100.00;98713.66;5048311;28;20037;-47
2024/01/17 07:05:23;;;;;;;6.55;3.05;;;;;;;-0.99;100.00;98715.09;5048130;28;20045;-48
2024/01/17 07:07:50;;;;;;;5.60;3.55;;;;;;;-1.00;100.00;98711.56;5049086;28;20052;-48
2024/01/17 07:10:18;;;;;;;14.55;3.35;;;;;;;-1.02;100.00;98713.81;5048365;28;20053;-50
2024/01/17 07:12:45;;;;;;;10.07;3.25;;;;;;;-1.01;100.00;98712.69;5047191;28;20049;-53
2024/01/17 07:15:13;;;;;;;8.10;3.58;;;;;;;-1.00;100.00;98722.44;5029550;28;20056;-46
2024/01/17 07:17:40;;;;;;;8.15;4.53;;;;;;;-1.04;100.00;98732.34;5042823;28;20049;-50
2024/01/17 07:20:10;;;;;;;5.20;3.47;;;;;;;-1.07;100.00;98724.81;5049309;28;20503;-49
2024/01/17 07:22:44;;;;;;;10.18;4.20;;;;;;;-1.07;100.00;98721.31;5030919;28;20128;-51
2024/01/17 07:25:13;;;;;;;4.43;3.13;;;;;;;-1.07;100.00;98732.97;5048831;28;20533;-46
2024/01/17 07:27:44;;;;;;;9.73;3.35;;;;;;;-1.08;100.00;98734.06;5048689;28;20041;-46
2024/01/17 07:30:12;;;;;;;6.60;3.95;;;;;;;-1.08;100.00;98736.00;5048421;28;20537;-46
2024/01/17 07:32:40;;;;;;;11.13;2.60;;;;;;;-1.10;100.00;98749.91;5044793;28;20049;-53
2024/01/17 07:35:08;;;;;;;13.30;3.83;;;;;;;-1.11;100.00;98744.78;5043441;28;20052;-52
2024/01/17 07:37:35;;;;;;;5.75;3.25;;;;;;;-1.10;100.00;98747.19;5042706;28;20983;-46
2024/01/17 07:40:04;;;;;;;8.55;3.65;;;;;;;-1.14;100.00;98748.13;5045885;28;20052;-51
2024/01/17 07:42:32;;;;;;;11.32;3.95;;;;;;;-1.15;100.00;98741.09;5047499;28;20049;-48
2024/01/17 07:44:59;;;;;;;5.82;3.60;;;;;;;-1.17;100.00;98744.16;5048435;28;20045;-47
2024/01/17 07:47:26;;;;;;;8.63;3.55;;;;;;;-1.19;100.00;98740.91;5048514;28;20407;-49
2024/01/17 07:49:59;;;;;;;7.53;3.65;;;;;;;-1.22;100.00;98753.22;5047694;28;20084;-48
2024/01/17 07:52:26;;;;;;;4.43;3.78;;;;;;;-1.23;100.00;98756.25;5048355;28;20049;-46
2024/01/17 07:54:53;;;;;;;5.80;3.63;;;;;;;-1.24;100.00;98749.22;5034074;28;20044;-48
2024/01/17 07:57:21;;;;;;;6.57;3.42;;;;;;;-1.25;100.00;98753.06;5047743;28;20056;-51
2024/01/17 07:59:48;;;;;;;6.65;4.00;;;;;;;-1.26;100.00;98746.03;5045552;28;20053;-47
2024/01/17 08:02:17;;;;;;;5.75;3.72;;;;;;;-1.28;100.00;98746.34;5047253;28;20041;-49
2024/01/17 08:04:45;;;;;;;7.63;3.15;;;;;;;-1.30;100.00;98751.28;5046434;28;20426;-49
2024/01/17 08:07:12;;;;;;;11.57;3.88;;;;;;;-1.33;100.00;98749.22;5044964;28;20048;-53
2024/01/17 08:09:39;;;;;;;7.35;3.85;;;;;;;-1.34;100.00;98755.75;5046198;28;20045;-49
2024/01/17 08:12:07;;;;;;;7.40;3.65;;;;;;;-1.36;100.00;98751.75;5045862;28;20040;-48
2024/01/17 08:14:34;;;;;;;7.00;3.47;;;;;;;-1.39;100.00;98760.53;5047317;28;20045;-54
2024/01/17 08:17:02;;;;;;;13.38;4.63;;;;;;;-1.41;100.00;98760.06;5042053;28;20056;-45
2024/01/17 08:19:29;;;;;;;5.85;3.20;;;;;;;-1.41;100.00;98763.56;5046934;28;20064;-48
2024/01/17 08:21:57;;;;;;;8.98;4.38;;;;;;;-1.39;100.00;98766.75;5029088;28;20525;-50
2024/01/17 08:24:24;;;;;;;9.13;3.58;;;;;;;-1.41;100.00;98760.06;5046579;28;20117;-47
2024/01/17 08:26:52;;;;;;;7.03;4.60;;;;;;;-1.45;100.00;98756.34;5046652;28;20048;-52
2024/01/17 08:29:19;;;;;;;8.05;3.58;;;;;;;-1.46;100.00;98752.88;5046871;28;20045;-48
2024/01/17 08:31:46;;;;;;;7.18;3.47;;;;;;;-1.44;100.00;98756.06;5047272;28;20052;-51
2024/01/17 08:34:14;;;;;;;8.95;3.60;;;;;;;-1.44;100.00;98760.69;5046787;28;20546;-49
2024/01/17 08:36:42;;;;;;;9.77;3.75;;;;;;;-1.43;100.00;98756.84;5045701;28;20056;-49
2024/01/17 08:39:10;;;;;;;16.73;4.50;;;;;;;-1.43;100.00;98762.28;5029159;28;20431;-49
2024/01/17 08:41:41;;;;;;;6.57;3.92;;;;;;;-1.44;100.00;98760.69;5046475;28;20076;-48
2024/01/17 08:44:10;;;;;;;10.10;4.18;;;;;;;-1.45;100.00;98759.88;5047236;28;20051;-46
2024/01/17 08:46:45;;;;;;;12.10;3.60;;;;;;;-1.46;100.00;98761.00;5046533;28;20116;-50
2024/01/17 08:49:14;;;;;;;5.47;3.63;;;;;;;-1.47;100.00;98755.88;5047650;28;20057;-51
2024/01/17 08:51:42;;;;;;;6.38;3.38;;;;;;;-1.47;100.00;98745.03;5045292;28;20040;-49
2024/01/17 08:54:10;;;;;;;9.32;3.90;;;;;;;-1.47;100.00;98745.03;5044259;28;20042;-48
2024/01/17 08:56:38;;;;;;;8.65;4.65;;;;;;;-1.49;100.00;98752.69;5046417;28;20415;-51
2024/01/17 08:59:05;;;;;;;11.05;4.18;;;;;;;-1.47;100.00;98753.16;5016787;28;20037;-48
2024/01/17 09:01:34;;;;;;;10.68;3.65;;;;;;;-1.46;100.00;98741.19;5045142;28;20048;-46
2024/01/17 09:04:01;;;;;;;9.13;4.13;;;;;;;-1.45;100.00;98749.00;5046528;28;20075;-44
2024/01/17 09:06:28;;;;;;;10.65;4.07;;;;;;;-1.43;100.00;98751.44;5046228;28;20455;-50
2024/01/17 09:08:56;;;;;;;7.78;3.80;;;;;;;-1.42;100.00;98742.97;5045784;28;20048;-49
2024/01/17 09:11:24;;;;;;;11.10;4.82;;;;;;;-1.39;100.00;98746.97;5045404;28;20056;-52
2024/01/17 09:13:51;;;;;;;23.88;5.10;;;;;;;-1.37;100.00;98752.88;5045897;28;20044;-49
2024/01/17 09:16:18;;;;;;;8.35;4.50;;;;;;;-1.37;100.00;98747.44;5040095;28;20046;-49
2024/01/17 09:18:46;;;;;;;9.65;4.15;;;;;;;-1.37;100.00;98756.38;5042007;28;20048;-49
2024/01/17 09:21:13;;;;;;;7.63;3.83;;;;;;;-1.35;100.00;98764.22;5046571;28;20041;-47
2024/01/17 09:23:41;;;;;;;9.18;4.13;;;;;;;-1.33;100.00;98762.78;5046837;28;20045;-44
2024/01/17 09:26:08;;;;;;;9.60;4.20;;;;;;;-1.30;100.00;98764.84;5045307;28;20049;-51
2024/01/17 09:28:35;;;;;;;8.88;4.03;;;;;;;-1.29;100.00;98762.94;5045932;28;20406;-47
2024/01/17 09:31:03;;;;;;;10.25;4.75;;;;;;;-1.25;100.00;98763.94;5045528;28;20060;-48
2024/01/17 09:33:30;;;;;;;14.13;4.40;;;;;;;-1.21;100.00;98775.75;5028027;28;20061;-49
2024/01/17 09:35:58;;;;;;;10.90;5.45;;;;;;;-1.18;100.00;98772.41;5019995;28;20049;-51
2024/01/17 09:38:29;;;;;;;14.40;5.33;;;;;;;-1.15;100.00;98785.34;5046645;28;20515;-45
2024/01/17 09:40:57;;;;;;;13.15;5.10;;;;;;;-1.12;100.00;98786.63;5038943;28;20052;-48
2024/01/17 09:43:25;;;;;;;9.48;3.78;;;;;;;-1.10;100.00;98787.09;5049531;28;20052;-50
2024/01/17 09:45:55;;;;;;;10.98;5.10;;;;;;;-1.07;100.00;98786.47;5050177;28;20041;-48
2024/01/17 09:48:25;;;;;;;10.00;4.53;;;;;;;-1.04;100.00;98789.38;5046209;28;20049;-50
2024/01/17 09:50:53;;;;;;;8.40;3.60;;;;;;;-1.00;100.00;98771.31;5041277;28;20434;-49
2024/01/17 09:53:28;;;;;;;14.85;4.78;;;;;;;-0.98;100.00;98779.94;5050303;28;20037;-51
2024/01/17 09:56:00;;;;;;;8.70;3.92;;;;;;;-0.94;100.00;98783.63;5049770;28;20060;-50
2024/01/17 09:58:35;;;;;;;15.43;4.97;;;;;;;-0.91;100.00;98784.91;5031143;28;20879;-45
2024/01/17 10:01:06;;;;;;;7.20;4.20;;;;;;;-0.86;100.00;98782.03;5049722;28;20509;-51
2024/01/17 10:03:37;;;;;;;15.25;5.63;;;;;;;-0.82;100.00;98788.44;5050095;28;20136;-45
2024/01/17 10:06:06;;;;;;;11.43;4.65;;;;;;;-0.79;100.00;98782.34;5048399;28;20049;-48
2024/01/17 10:08:33;;;;;;;11.90;3.42;;;;;;;-0.75;100.00;98778.69;5047127;28;20059;-49
2024/01/17 10:11:01;;;;;;;10.52;3.95;;;;;;;-0.73;100.00;98784.59;5028068;28;20046;-49
2024/01/17 10:13:28;;;;;;;7.28;3.10;;;;;;;-0.68;100.00;98789.88;5030472;28;20411;-45
2024/01/17 10:16:00;;;;;;;7.68;3.15;;;;;;;-0.63;100.00;98792.44;5029680;28;20056;-47
2024/01/17 10:18:28;;;;;;;9.65;3.08;;;;;;;-0.59;100.00;98786.38;5029605;28;20061;-50
2024/01/17 10:20:56;;;;;;;7.40;3.20;;;;;;;-0.54;100.00;98788.94;5016701;28;20049;-50
2024/01/17 10:23:24;;;;;;;3.97;2.72;;;;;;;-0.52;100.00;98792.91;5029283;28;20077;-51
2024/01/17 10:25:52;;;;;;;8.48;2.53;;;;;;;-0.48;100.00;98803.97;5023412;28;20431;-51
2024/01/17 10:28:19;;;;;;;5.82;4.18;;;;;;;-0.44;100.00;98788.59;5026810;28;20045;-48
2024/01/17 10:30:46;;;;;;;5.45;2.33;;;;;;;-0.39;100.00;98791.97;5029334;28;20530;-47
2024/01/17 10:33:14;;;;;;;6.57;2.72;;;;;;;-0.35;100.00;98803.00;5028713;28;20050;-46
2024/01/17 10:35:42;;;;;;;5.18;3.08;;;;;;;-0.32;100.00;98796.94;5028462;28;20507;-47
2024/01/17 10:38:09;;;;;;;7.22;2.53;;;;;;;-0.27;100.00;98804.91;4999080;28;20412;-50
2024/01/17 10:40:42;;;;;;;7.55;2.80;;;;;;;-0.25;100.00;98805.38;5029067;28;20409;-50
2024/01/17 10:43:11;;;;;;;6.10;2.80;;;;;;;-0.23;100.00;98800.41;5029008;28;20046;-47
2024/01/17 10:45:39;;;;;;;4.82;2.75;;;;;;;-0.22;100.00;98802.03;5027936;28;20530;-52
2024/01/17 10:48:07;;;;;;;8.27;2.65;;;;;;;-0.19;100.00;98806.81;5019622;28;20407;-46
2024/01/17 10:50:35;;;;;;;4.85;2.60;;;;;;;-0.17;100.00;98801.84;5025073;28;20045;-50
2024/01/17 10:53:08;;;;;;;6.57;2.55;;;;;;;-0.14;100.00;98814.81;5018799;28;20602;-45
2024/01/17 10:55:38;;;;;;;13.88;3.03;;;;;;;-0.10;100.00;98821.19;5023215;28;20054;-48
2024/01/17 10:58:11;;;;;;;5.40;2.00;;;;;;;-0.07;100.00;98823.28;5014388;28;20053;-48
2024/01/17 11:00:40;;;;;;;;;;;;;;;-0.04;100.00;98819.91;5021882;28;20056;-47
2024/01/17 11:03:18;;;;;;;9.43;3.15;;;;;;;-0.01;100.00;98819.28;5021724;28;19932;-48
2024/01/17 11:05:50;;;;;;;6.50;2.35;;;;;;;0.03;100.00;98825.66;5022948;28;20070;-48
2024/01/17 11:08:21;;;;;;;6.88;2.22;;;;;;;0.06;100.00;98819.56;5028386;28;20399;-48
2024/01/17 11:10:52;;;;;;;7.95;2.78;;;;;;;0.08;100.00;98827.44;5043160;28;20072;-52
2024/01/17 11:13:20;;;;;;;3.63;1.90;;;;;;;0.09;100.00;98829.81;5047932;28;20601;-49
2024/01/17 11:15:51;;;;;;;5.35;2.55;;;;;;;0.12;100.00;98829.19;5048892;28;20748;-47
2024/01/17 11:18:20;;;;;;;10.68;2.42;;;;;;;0.14;100.00;98826.91;5048626;28;20048;-52
2024/01/17 11:20:48;;;;;;;9.57;2.67;;;;;;;0.17;100.00;98834.44;5048787;28;20041;-52
2024/01/17 11:23:29;;;;;;;6.63;2.45;;;;;;;0.22;100.00;98822.56;5048663;28;20064;-51
2024/01/17 11:26:15;;;;;;;5.00;2.20;;;;;;;0.23;100.00;98830.44;5046687;28;20048;-52
2024/01/17 11:29:17;;;;;;;3.95;1.90;;;;;;;0.27;100.00;98836.81;5048735;28;20053;-48